weather.gov     
National Weather Service

Terminal Aerodrome Forecast
NWS Homepage
This page is being discontinued on March 12, 2014.
The same data is available at this site. Please update your bookmarks.
Thank you, and we apologize for the inconvenience.
Please send an email to SR-SRH.Webmaster@noaa.gov with any concerns.


Current Version
Previous Version:    01  02  03  04  05  06  07  08  09  10  11  12  13  14  15  16  17  18  19  20  21  22  23  24  25  26  27  28  29  30  
   31  32  33  34  35  36  37  38  39  40  41  42  43  44  45  46  47  48  49  50  51  52  53  54  55  56  57  58  59  60  
[Printable]
300
FTUS43 KMKX 010733 AAA
TAFUES
TAF AMD
KUES 010733Z 0108/0206 18005KT P6SM BKN250
     FM011100 18010KT P6SM VCTS SCT040 BKN080CB
     FM011300 19011KT 6SM -TSRA SCT025 OVC050CB
     FM011700 21015G25KT P6SM SCT030 BKN060
     FM012100 22014G23KT P6SM VCTS SCT030CB BKN080
     FM020200 25005KT P6SM SCT040 SCT080=


300
FTUS43 KMKX 010733 AAA
TAFUES
TAF AMD
KUES 010733Z 0108/0206 18005KT P6SM BKN250
     FM011100 18010KT P6SM VCTS SCT040 BKN080CB
     FM011300 19011KT 6SM -TSRA SCT025 OVC050CB
     FM011700 21015G25KT P6SM SCT030 BKN060
     FM012100 22014G23KT P6SM VCTS SCT030CB BKN080
     FM020200 25005KT P6SM SCT040 SCT080=




U.S. Dept. of Commerce
NOAA National Weather Service
1325 East West Highway
Silver Spring, MD 20910
E-mail: w-nws.webmaster@noaa.gov
Page last modified: May 16, 2007
NATIONAL WEATHER SERVICE: for Safety, for Work, for Fun - FOR LIFE